createdAt,value
2019-03-08T00:02:14.644Z,94924.27
2019-03-08T00:04:45.483Z,94919.50
2019-03-08T00:07:17.053Z,94926.67
2019-03-08T00:09:48.898Z,94924.61
2019-03-08T00:12:19.770Z,94930.19
2019-03-08T00:14:56.308Z,94935.25
2019-03-08T00:17:33.217Z,94942.95
2019-03-08T00:20:05.891Z,94934.97
2019-03-08T00:22:38.279Z,94938.97
2019-03-08T00:25:14.531Z,94943.75
2019-03-08T00:27:45.457Z,94946.95
2019-03-08T00:30:17.994Z,94955.73
2019-03-08T00:32:52.401Z,94948.28
2019-03-08T00:35:23.541Z,94949.59
2019-03-08T00:37:54.457Z,94945.59
2019-03-08T00:40:26.735Z,94945.34
2019-03-08T00:42:57.605Z,94947.47
2019-03-08T00:45:28.447Z,94947.73
2019-03-08T00:48:01.949Z,94941.63
2019-03-08T00:50:34.775Z,94932.86
2019-03-08T00:53:20.712Z,94936.32
2019-03-08T00:55:53.503Z,94932.06
2019-03-08T00:58:27.404Z,94932.61
2019-03-08T01:00:58.437Z,94930.48
2019-03-08T01:03:32.433Z,94932.34
2019-03-08T01:06:03.390Z,94941.09
2019-03-08T01:08:34.756Z,94935.23
2019-03-08T01:11:05.646Z,94942.41
2019-03-08T01:13:36.554Z,94937.08
2019-03-08T01:16:07.546Z,94939.73
2019-03-08T01:18:39.956Z,94939.49
2019-03-08T01:21:10.773Z,94941.60
2019-03-08T01:23:41.578Z,94942.95
2019-03-08T01:26:12.706Z,94936.30
2019-03-08T01:28:44.849Z,94938.42
2019-03-08T01:31:15.678Z,94936.32
2019-03-08T01:33:52.698Z,94941.09
2019-03-08T01:36:23.567Z,94940.28
2019-03-08T01:38:54.490Z,94938.44
2019-03-08T01:41:25.702Z,94938.19
2019-03-08T01:43:56.652Z,94947.77
2019-03-08T01:46:27.425Z,94938.19
2019-03-08T01:48:58.221Z,94929.68
2019-03-08T01:51:29.489Z,94929.97
2019-03-08T01:54:00.295Z,94936.05
2019-03-08T01:56:31.052Z,94935.00
2019-03-08T01:59:01.856Z,94930.20
2019-03-08T02:01:33.107Z,94911.08
2019-03-08T02:04:04.091Z,94916.91
2019-03-08T02:06:34.930Z,94907.91
2019-03-08T02:09:06.876Z,94898.09
2019-03-08T02:11:39.206Z,94916.67
2019-03-08T02:14:09.968Z,94904.45
2019-03-08T02:16:40.824Z,94908.18
2019-03-08T02:19:11.728Z,94906.85
2019-03-08T02:21:42.588Z,94903.39
2019-03-08T02:24:13.354Z,94900.98
2019-03-08T02:26:44.198Z,94894.59
2019-03-08T02:29:15.409Z,94887.97
2019-03-08T02:31:46.768Z,94888.47
2019-03-08T02:34:17.702Z,94884.48
2019-03-08T02:36:48.553Z,94883.94
2019-03-08T02:39:19.362Z,94877.02
2019-03-08T02:41:50.566Z,94865.84
2019-03-08T02:44:21.505Z,94865.56
2019-03-08T02:46:52.321Z,94864.78
2019-03-08T02:49:23.104Z,94870.61
2019-03-08T02:51:54.305Z,94865.34
2019-03-08T02:54:25.467Z,94874.09
2019-03-08T02:56:57.510Z,94878.86
2019-03-08T02:59:29.962Z,94881.50
2019-03-08T03:02:00.870Z,94883.66
2019-03-08T03:04:32.273Z,94876.24
2019-03-08T03:07:03.163Z,94881.03
2019-03-08T03:09:34.026Z,94900.95
2019-03-08T03:12:05.791Z,94893.49
2019-03-08T03:14:37.042Z,94889.83
2019-03-08T03:17:07.797Z,94900.45
2019-03-08T03:19:38.639Z,94912.92
2019-03-08T03:22:09.419Z,94902.86
2019-03-08T03:24:40.241Z,94907.38
2019-03-08T03:27:11.036Z,94915.34
2019-03-08T03:29:43.800Z,94924.37
2019-03-08T03:32:14.711Z,94909.23
2019-03-08T03:34:45.592Z,94929.42
2019-03-08T03:37:16.392Z,94910.84
2019-03-08T03:39:47.182Z,94930.75
2019-03-08T03:42:19.779Z,94922.22
2019-03-08T03:44:50.630Z,94925.16
2019-03-08T03:47:21.437Z,94948.52
2019-03-08T03:49:52.182Z,94931.55
2019-03-08T03:52:25.733Z,94933.41
2019-03-08T03:54:56.795Z,94931.02
2019-03-08T03:57:28.588Z,94944.56
2019-03-08T03:59:59.398Z,94938.72
2019-03-08T04:02:30.248Z,94944.84
2019-03-08T04:05:01.556Z,94942.44
2019-03-08T04:07:34.162Z,94954.64
2019-03-08T04:10:05.463Z,94946.67
2019-03-08T04:12:36.468Z,94946.95
2019-03-08T04:15:15.644Z,94949.34
2019-03-08T04:17:46.711Z,94960.50
2019-03-08T04:20:18.032Z,94957.31
2019-03-08T04:22:48.962Z,94958.39
2019-03-08T04:25:19.737Z,94949.62
2019-03-08T04:27:50.981Z,94941.89
2019-03-08T04:30:22.281Z,94926.50
2019-03-08T04:32:53.033Z,94946.94
2019-03-08T04:35:23.881Z,94944.30
2019-03-08T04:37:54.666Z,94960.75
2019-03-08T04:40:25.911Z,94958.89
2019-03-08T04:42:57.265Z,94957.84
2019-03-08T04:45:28.321Z,94961.55
2019-03-08T04:47:59.133Z,94953.30
2019-03-08T04:50:30.498Z,94962.34
2019-03-08T04:53:01.268Z,94960.47
2019-03-08T04:55:32.429Z,94973.22
2019-03-08T04:58:03.718Z,94961.00
2019-03-08T05:00:35.140Z,94951.70
2019-03-08T05:03:06.086Z,94969.75
2019-03-08T05:05:36.876Z,94966.84
2019-03-08T05:08:10.896Z,94961.81
2019-03-08T05:10:41.999Z,94970.04
2019-03-08T05:13:13.920Z,94966.03
2019-03-08T05:15:44.839Z,94972.66
2019-03-08T05:18:16.123Z,94967.62
2019-03-08T05:20:46.958Z,94970.01
2019-03-08T05:23:17.681Z,94965.73
2019-03-08T05:26:22.924Z,94970.25
2019-03-08T05:33:33.728Z,94959.59
2019-03-08T05:36:10.089Z,94956.13
2019-03-08T05:38:41.045Z,94945.75
2019-03-08T05:41:12.414Z,94954.24
2019-03-08T05:43:43.228Z,94964.56
2019-03-08T05:46:22.581Z,94945.75
2019-03-08T05:48:57.616Z,94947.31
2019-03-08T05:51:28.535Z,94956.05
2019-03-08T05:53:59.292Z,94956.03
2019-03-08T05:56:30.126Z,94964.80
2019-03-08T05:59:01.545Z,94964.27
2019-03-08T06:01:35.060Z,94962.44
2019-03-08T06:04:05.920Z,94977.55
2019-03-08T06:06:37.311Z,94964.29
2019-03-08T06:09:08.854Z,94981.02
2019-03-08T06:11:40.036Z,94982.62
2019-03-08T06:14:11.252Z,94985.79
2019-03-08T06:16:45.187Z,94994.27
2019-03-08T06:19:16.203Z,95003.81
2019-03-08T06:21:47.034Z,95004.06
2019-03-08T06:24:20.192Z,95003.27
2019-03-08T06:26:53.360Z,95022.09
2019-03-08T06:29:24.645Z,95019.18
2019-03-08T06:31:55.485Z,95027.92
2019-03-08T06:34:29.272Z,95006.20
2019-03-08T06:37:00.163Z,95032.73
2019-03-08T06:39:31.482Z,95048.92
2019-03-08T06:42:02.623Z,95051.27
2019-03-08T06:44:33.405Z,95056.88
2019-03-08T06:47:04.662Z,95060.56
2019-03-08T06:49:35.462Z,95062.14
2019-03-08T06:52:08.462Z,95069.02
2019-03-08T06:54:39.569Z,95078.10
2019-03-08T06:57:10.911Z,95082.90
2019-03-08T06:59:49.417Z,95082.66
2019-03-08T07:02:21.075Z,95088.77
2019-03-08T07:04:52.587Z,95088.29
2019-03-08T07:07:23.397Z,95098.94
2019-03-08T07:09:54.326Z,95115.47
2019-03-08T07:12:27.382Z,95123.47
2019-03-08T07:15:03.796Z,95133.09
2019-03-08T07:17:37.206Z,95131.53
2019-03-08T07:20:21.389Z,95146.95
2019-03-08T07:23:13.857Z,95150.66
2019-03-08T07:26:09.327Z,95149.09
2019-03-08T07:29:14.282Z,95163.14
2019-03-08T07:32:12.848Z,95164.45
2019-03-08T07:35:02.561Z,95171.89
2019-03-08T07:38:01.728Z,95174.05
2019-03-08T07:40:45.807Z,95169.83
2019-03-08T07:43:48.592Z,95183.71
2019-03-08T07:46:31.405Z,95185.81
2019-03-08T07:49:12.363Z,95207.08
2019-03-08T07:52:04.566Z,95209.48
2019-03-08T07:55:00.613Z,95221.20
2019-03-08T07:58:36.211Z,95220.41
2019-03-08T08:01:42.763Z,95207.14
2019-03-08T08:04:31.856Z,95208.22
2019-03-08T08:07:27.732Z,95212.70
2019-03-08T08:10:23.149Z,95219.16
2019-03-08T08:13:14.631Z,95228.55
2019-03-08T08:16:11.057Z,95240.88
2019-03-08T08:19:10.010Z,95225.50
2019-03-08T08:22:13.350Z,95222.60
2019-03-08T08:25:01.022Z,95240.96
2019-03-08T08:27:51.967Z,95238.84
2019-03-08T08:30:33.482Z,95242.59
2019-03-08T08:33:37.047Z,95235.40
2019-03-08T08:36:25.675Z,95250.58
2019-03-08T08:39:13.936Z,95266.81
2019-03-08T08:42:07.613Z,95270.00
2019-03-08T08:44:49.741Z,95277.19
2019-03-08T08:47:39.874Z,95283.84
2019-03-08T08:50:28.842Z,95292.91
2019-03-08T08:53:22.707Z,95289.44
2019-03-08T08:56:10.686Z,95284.89
2019-03-08T08:58:49.426Z,95283.04
2019-03-08T09:01:43.679Z,95297.70
2019-03-08T09:05:15.771Z,95310.23
2019-03-08T09:08:39.457Z,95309.94
2019-03-08T09:11:58.294Z,95314.13
2019-03-08T09:15:20.567Z,95324.94
2019-03-08T09:18:22.664Z,95325.45
2019-03-08T09:21:05.540Z,95337.36
2019-03-08T09:23:51.311Z,95338.70
2019-03-08T09:26:41.075Z,95343.73
2019-03-08T09:29:40.974Z,95351.48
2019-03-08T09:32:15.195Z,95352.26
2019-03-08T09:35:03.797Z,95360.83
2019-03-08T09:37:43.488Z,95352.61
2019-03-08T09:40:33.655Z,95362.03
2019-03-08T09:43:20.458Z,95370.05
2019-03-08T09:46:08.132Z,95379.38
2019-03-08T09:48:48.897Z,95370.59
2019-03-08T09:51:39.041Z,95383.39
2019-03-08T09:54:32.303Z,95390.28
2019-03-08T09:57:25.071Z,95398.20
2019-03-08T10:00:22.207Z,95410.97
2019-03-08T10:03:17.823Z,95409.65
2019-03-08T10:06:19.903Z,95411.80
2019-03-08T10:09:09.518Z,95422.95
2019-03-08T10:11:55.026Z,95428.23
2019-03-08T10:14:50.271Z,95420.25
2019-03-08T10:17:39.141Z,95423.42
2019-03-08T10:20:18.006Z,95437.14
2019-03-08T10:23:19.718Z,95441.06
2019-03-08T10:26:03.409Z,95448.73
2019-03-08T10:28:49.493Z,95450.59
2019-03-08T10:31:26.638Z,95460.13
2019-03-08T10:34:15.139Z,95456.91
2019-03-08T10:36:57.266Z,95449.73
2019-03-08T10:39:50.445Z,95468.08
2019-03-08T10:42:46.688Z,95461.67
2019-03-08T10:45:39.454Z,95460.66
2019-03-08T10:48:32.242Z,95458.30
2019-03-08T10:51:16.032Z,95465.75
2019-03-08T10:54:00.698Z,95474.72
2019-03-08T10:56:50.570Z,95475.58
2019-03-08T10:59:45.837Z,95470.53
2019-03-08T11:02:42.332Z,95472.95
2019-03-08T11:05:29.390Z,95473.27
2019-03-08T11:08:10.638Z,95477.79
2019-03-08T11:11:17.109Z,95484.77
2019-03-08T11:14:17.088Z,95477.86
2019-03-08T11:16:56.650Z,95485.84
2019-03-08T11:19:38.451Z,95490.41
2019-03-08T11:22:27.560Z,95493.84
2019-03-08T11:25:08.755Z,95493.62
2019-03-08T11:27:55.950Z,95492.52
2019-03-08T11:30:53.791Z,95500.27
2019-03-08T11:33:30.696Z,95498.69
2019-03-08T11:36:28.712Z,95505.06
2019-03-08T11:39:08.919Z,95504.49
2019-03-08T11:41:57.522Z,95507.17
2019-03-08T11:44:50.623Z,95516.19
2019-03-08T11:47:31.221Z,95517.23
2019-03-08T11:50:23.040Z,95525.47
2019-03-08T11:53:01.755Z,95516.19
2019-03-08T11:55:42.176Z,95518.84
2019-03-08T11:58:24.719Z,95521.81
2019-03-08T12:01:31.245Z,95523.95
2019-03-08T12:04:23.685Z,95511.72
2019-03-08T12:07:21.544Z,95520.55
2019-03-08T12:10:02.205Z,95510.53
2019-03-08T12:12:51.624Z,95515.66
2019-03-08T12:15:48.307Z,95516.26
2019-03-08T12:18:43.854Z,95514.69
2019-03-08T12:21:32.153Z,95520.03
2019-03-08T12:24:19.794Z,95521.61
2019-03-08T12:27:24.523Z,95522.92
2019-03-08T12:30:14.601Z,95525.63
2019-03-08T12:33:24.513Z,95523.75
2019-03-08T12:36:30.235Z,95526.92
2019-03-08T12:39:24.682Z,95536.79
2019-03-08T12:42:22.942Z,95534.31
2019-03-08T12:45:18.740Z,95536.73
2019-03-08T12:48:23.462Z,95538.33
2019-03-08T12:50:59.570Z,95547.08
2019-03-08T12:53:56.222Z,95550.25
2019-03-08T12:56:50.215Z,95548.36
2019-03-08T12:59:48.279Z,95551.88
2019-03-08T13:02:38.066Z,95557.52
2019-03-08T13:05:34.184Z,95552.45
2019-03-08T13:08:15.454Z,95552.66
2019-03-08T13:10:46.227Z,95570.44
2019-03-08T13:13:17.905Z,95562.16
2019-03-08T13:15:52.961Z,95574.35
2019-03-08T13:18:33.575Z,95562.82
2019-03-08T13:21:04.370Z,95572.88
2019-03-08T13:23:38.699Z,95572.85
2019-03-08T13:26:12.477Z,95576.88
2019-03-08T13:28:45.664Z,95581.61
2019-03-08T13:31:19.614Z,95580.44
2019-03-08T13:33:51.437Z,95583.55
2019-03-08T13:36:22.495Z,95590.66
2019-03-08T13:39:01.929Z,95590.91
2019-03-08T13:41:34.947Z,95594.37
2019-03-08T13:44:05.773Z,95597.83
2019-03-08T13:46:37.032Z,95601.99
2019-03-08T13:49:08.645Z,95600.38
2019-03-08T13:51:39.960Z,95605.73
2019-03-08T13:54:10.813Z,95610.56
2019-03-08T13:56:44.421Z,95614.09
2019-03-08T13:59:21.400Z,95619.66
2019-03-08T14:01:52.235Z,95618.58
2019-03-08T14:04:24.617Z,95616.48
2019-03-08T14:06:58.111Z,95622.01
2019-03-08T14:09:29.389Z,95638.00
2019-03-08T14:12:00.467Z,95639.61
2019-03-08T14:14:35.313Z,95642.75
2019-03-08T14:17:06.354Z,95633.61
2019-03-08T14:19:41.186Z,95635.19
2019-03-08T14:22:13.523Z,95649.80
2019-03-08T14:25:13.711Z,95652.46
2019-03-08T14:28:00.323Z,95655.16
2019-03-08T14:31:08.998Z,95658.66
2019-03-08T14:34:17.837Z,95666.16
2019-03-08T14:36:52.772Z,95669.94
2019-03-08T14:39:28.933Z,95665.47
2019-03-08T14:42:20.956Z,95666.09
2019-03-08T14:45:07.741Z,95664.77
2019-03-08T14:47:44.447Z,95667.44
2019-03-08T14:50:18.593Z,95672.02
2019-03-08T14:52:55.303Z,95666.20
2019-03-08T14:55:25.461Z,95676.92
2019-03-08T14:57:58.924Z,95666.90
2019-03-08T15:00:34.814Z,95686.09
2019-03-08T15:03:05.648Z,95680.83
2019-03-08T15:05:39.130Z,95690.92
2019-03-08T15:08:13.589Z,95688.63
2019-03-08T15:10:47.303Z,95690.98
2019-03-08T15:13:20.226Z,95703.64
2019-03-08T15:15:51.074Z,95691.85
2019-03-08T15:18:26.003Z,95704.72
2019-03-08T15:20:58.577Z,95702.30
2019-03-08T15:23:32.816Z,95704.47
2019-03-08T15:26:03.792Z,95706.05
2019-03-08T15:28:34.634Z,95708.42
2019-03-08T15:32:12.404Z,95702.83
2019-03-08T15:34:52.524Z,95702.51
2019-03-08T15:37:23.651Z,95710.42
2019-03-08T15:39:54.705Z,95707.97
2019-03-08T15:42:29.319Z,95717.27
2019-03-08T15:45:01.691Z,95714.30
2019-03-08T15:47:37.756Z,95712.41
2019-03-08T15:50:13.976Z,95709.75
2019-03-08T15:52:45.437Z,95723.53
2019-03-08T15:55:18.820Z,95721.11
2019-03-08T15:57:53.729Z,95725.37
2019-03-08T16:00:28.351Z,95728.20
2019-03-08T16:03:15.329Z,95733.44
2019-03-08T16:06:06.448Z,95729.44
2019-03-08T16:08:58.809Z,95731.73
2019-03-08T16:11:40.452Z,95750.31
2019-03-08T16:14:11.343Z,95764.39
2019-03-08T16:16:46.115Z,95753.96
2019-03-08T16:19:26.218Z,95763.31
2019-03-08T16:21:57.587Z,95758.03
2019-03-08T16:24:50.837Z,95770.43
2019-03-08T16:27:39.617Z,95764.10
2019-03-08T16:30:35.893Z,95762.51
2019-03-08T16:33:18.228Z,95766.03
2019-03-08T16:36:09.047Z,95776.47
2019-03-08T16:39:06.485Z,95773.55
2019-03-08T16:41:57.091Z,95772.13
2019-03-08T16:44:43.915Z,95776.06
2019-03-08T16:47:35.848Z,95784.63
2019-03-08T16:50:25.993Z,95785.52
2019-03-08T16:53:28.353Z,95790.99
2019-03-08T16:56:21.711Z,95792.46
2019-03-08T16:59:17.493Z,95794.16
2019-03-08T17:02:08.779Z,95798.00
2019-03-08T17:04:52.761Z,95797.62
2019-03-08T17:07:49.091Z,95807.94
2019-03-08T17:10:39.843Z,95822.13
2019-03-08T17:13:35.547Z,95828.03
2019-03-08T17:16:43.381Z,95832.49
2019-03-08T17:19:31.776Z,95833.30
2019-03-08T17:22:40.502Z,95839.12
2019-03-08T17:25:30.061Z,95847.87
2019-03-08T17:28:39.707Z,95852.98
2019-03-08T17:31:17.674Z,95856.80
2019-03-08T17:34:06.291Z,95856.89
2019-03-08T17:37:10.020Z,95857.19
2019-03-08T17:40:06.252Z,95856.73
2019-03-08T17:43:03.787Z,95860.19
2019-03-08T17:45:56.876Z,95864.75
2019-03-08T17:48:39.196Z,95869.17
2019-03-08T17:51:29.723Z,95879.61
2019-03-08T17:54:27.707Z,95885.94
2019-03-08T17:57:24.466Z,95889.97
2019-03-08T18:00:08.121Z,95893.00
2019-03-08T18:02:56.389Z,95903.27
2019-03-08T18:05:46.978Z,95910.84
2019-03-08T18:08:34.636Z,95909.93
2019-03-08T18:11:45.610Z,95923.55
2019-03-08T18:14:38.684Z,95929.54
2019-03-08T18:17:31.524Z,95936.23
2019-03-08T18:20:20.095Z,95937.93
2019-03-08T18:23:04.016Z,95937.70
2019-03-08T18:25:51.086Z,95944.03
2019-03-08T18:28:53.148Z,95941.02
2019-03-08T18:31:38.676Z,95953.33
2019-03-08T18:34:49.485Z,95947.89
2019-03-08T18:37:53.006Z,95959.69
2019-03-08T18:40:37.971Z,95965.81
2019-03-08T18:43:31.351Z,95964.62
2019-03-08T18:46:20.360Z,95967.45
2019-03-08T18:49:19.293Z,95972.88
2019-03-08T18:52:24.302Z,95973.17
2019-03-08T18:55:11.649Z,95983.03
2019-03-08T18:58:08.962Z,95978.55
2019-03-08T19:01:22.302Z,95977.52
2019-03-08T19:04:08.534Z,95979.58
2019-03-08T19:06:58.771Z,95977.44
2019-03-08T19:09:41.507Z,95981.23
2019-03-08T19:12:47.058Z,95972.56
2019-03-08T19:15:39.446Z,95977.64
2019-03-08T19:18:36.205Z,95982.42
2019-03-08T19:21:26.783Z,95981.17
2019-03-08T19:24:09.325Z,95974.17
2019-03-08T19:27:10.890Z,95973.53
2019-03-08T19:29:54.987Z,95975.59
2019-03-08T19:33:07.158Z,95969.06
2019-03-08T19:36:05.349Z,95969.58
2019-03-08T19:39:16.780Z,95973.39
2019-03-08T19:42:20.952Z,95962.08
2019-03-08T19:45:12.493Z,95959.92
2019-03-08T19:48:02.367Z,95967.35
2019-03-08T19:50:42.255Z,95971.71
2019-03-08T19:53:28.724Z,95976.24
2019-03-08T19:56:11.881Z,95976.20
2019-03-08T19:59:07.395Z,95971.93
2019-03-08T20:01:58.415Z,95960.53
2019-03-08T20:04:48.289Z,95951.05
2019-03-08T20:07:43.290Z,95959.34
2019-03-08T20:10:41.781Z,95956.09
2019-03-08T20:13:40.986Z,95954.73
2019-03-08T20:17:18.664Z,95960.83
2019-03-08T20:20:20.918Z,95958.19
2019-03-08T20:23:10.139Z,95956.05
2019-03-08T20:26:04.298Z,95969.87
2019-03-08T20:29:03.929Z,95962.67
2019-03-08T20:31:49.480Z,95963.84
2019-03-08T20:35:00.453Z,95954.28
2019-03-08T20:37:51.877Z,95952.81
2019-03-08T20:40:41.949Z,95953.03
2019-03-08T20:43:17.456Z,95953.63
2019-03-08T20:46:13.069Z,95960.75
2019-03-08T20:48:44.262Z,95959.87
2019-03-08T20:51:16.746Z,95958.11
2019-03-08T20:53:58.055Z,95964.20
2019-03-08T20:56:28.868Z,95972.66
2019-03-08T20:58:59.777Z,95977.58
2019-03-08T21:01:32.478Z,95979.38
2019-03-08T21:04:13.659Z,95983.34
2019-03-08T21:07:06.331Z,95976.77
2019-03-08T21:09:39.167Z,95975.62
2019-03-08T21:12:10.952Z,95977.37
2019-03-08T21:14:44.569Z,95983.40
2019-03-08T21:17:18.917Z,95981.05
2019-03-08T21:19:51.775Z,95981.34
2019-03-08T21:22:23.106Z,95991.50
2019-03-08T21:24:59.930Z,95989.70
2019-03-08T21:27:40.347Z,95992.52
2019-03-08T21:30:16.880Z,95990.75
2019-03-08T21:32:48.254Z,95985.28
2019-03-08T21:35:19.738Z,95978.31
2019-03-08T21:37:51.047Z,95973.22
2019-03-08T21:40:22.018Z,95980.77
2019-03-08T21:43:01.031Z,95985.55
2019-03-08T21:45:33.673Z,95977.16
2019-03-08T21:48:10.030Z,95967.20
2019-03-08T21:50:42.377Z,95965.95
2019-03-08T21:53:13.222Z,95961.31
2019-03-08T21:55:44.112Z,95959.59
2019-03-08T21:58:19.121Z,95955.40
2019-03-08T22:00:55.413Z,95949.37
2019-03-08T22:03:30.113Z,95949.48
2019-03-08T22:06:01.060Z,95946.39
2019-03-08T22:08:35.686Z,95941.60
2019-03-08T22:11:15.235Z,95939.25
2019-03-08T22:13:48.197Z,95939.25
2019-03-08T22:16:23.267Z,95931.89
2019-03-08T22:18:54.458Z,95930.86
2019-03-08T22:21:25.911Z,95932.96
2019-03-08T22:23:56.805Z,95922.72
2019-03-08T22:26:27.620Z,95924.27
2019-03-08T22:28:58.599Z,95915.14
2019-03-08T22:31:29.930Z,95918.30
2019-03-08T22:34:02.824Z,95918.23
2019-03-08T22:36:37.197Z,95925.59
2019-03-08T22:39:09.860Z,95914.55
2019-03-08T22:41:49.421Z,95904.77
2019-03-08T22:44:20.487Z,95907.13
2019-03-08T22:46:54.185Z,95903.38
2019-03-08T22:49:25.401Z,95901.47
2019-03-08T22:51:56.657Z,95901.42
2019-03-08T22:54:27.699Z,95901.17
2019-03-08T22:56:58.486Z,95896.58
2019-03-08T22:59:30.071Z,95889.81
2019-03-08T23:02:11.953Z,95894.05
2019-03-08T23:04:44.749Z,95896.28
2019-03-08T23:07:21.995Z,95895.30
2019-03-08T23:10:04.887Z,95887.28
2019-03-08T23:12:50.562Z,95885.44
2019-03-08T23:15:37.234Z,95881.36
2019-03-08T23:18:11.471Z,95878.66
2019-03-08T23:20:42.645Z,95883.96
2019-03-08T23:23:13.976Z,95874.47
2019-03-08T23:25:44.932Z,95876.57
2019-03-08T23:28:37.810Z,95870.60
2019-03-08T23:31:15.023Z,95876.19
2019-03-08T23:33:47.723Z,95872.84
2019-03-08T23:36:20.662Z,95868.13
2019-03-08T23:38:51.486Z,95872.28
2019-03-08T23:41:22.942Z,95864.08
2019-03-08T23:43:54.360Z,95856.91
2019-03-08T23:46:29.448Z,95859.33
2019-03-08T23:49:00.588Z,95856.69
2019-03-08T23:51:31.852Z,95854.30
2019-03-08T23:54:03.777Z,95852.16
2019-03-08T23:56:35.520Z,95851.03
2019-03-08T23:59:10.555Z,95845.22
